createdAt,value
2022-12-22T00:00:23.386Z,169.00
2022-12-22T00:04:14.838Z,185.25
2022-12-22T00:07:36.031Z,170.25
2022-12-22T00:11:03.058Z,208.75
2022-12-22T00:14:32.226Z,190.25
2022-12-22T00:18:00.779Z,209.00
2022-12-22T00:21:26.296Z,197.25
2022-12-22T00:25:01.742Z,186.50
2022-12-22T00:28:37.780Z,186.50
2022-12-22T00:32:09.689Z,197.25
2022-12-22T00:35:36.494Z,184.75
2022-12-22T00:39:08.765Z,202.25
2022-12-22T00:42:36.275Z,177.50
2022-12-22T00:46:02.015Z,185.00
2022-12-22T00:49:34.204Z,191.75
2022-12-22T00:53:07.079Z,205.25
2022-12-22T00:56:30.135Z,192.00
2022-12-22T00:59:54.754Z,228.25
2022-12-22T01:03:15.802Z,221.75
2022-12-22T01:07:30.685Z,206.00
2022-12-22T01:10:59.660Z,194.25
2022-12-22T01:15:20.616Z,233.25
2022-12-22T01:18:44.953Z,238.00
2022-12-22T01:22:08.079Z,262.25
2022-12-22T01:25:38.552Z,268.00
2022-12-22T01:29:02.088Z,234.50
2022-12-22T01:32:25.676Z,225.75
2022-12-22T01:35:53.329Z,223.25
2022-12-22T01:39:18.567Z,253.50
2022-12-22T01:42:44.838Z,231.75
2022-12-22T01:46:10.507Z,239.25
2022-12-22T01:49:36.435Z,254.00
2022-12-22T01:53:02.968Z,265.00
2022-12-22T01:56:26.529Z,236.00
2022-12-22T01:59:50.419Z,266.75
2022-12-22T02:03:14.267Z,222.00
2022-12-22T02:07:00.799Z,224.50
2022-12-22T02:10:43.413Z,268.50
2022-12-22T02:14:18.363Z,244.50
2022-12-22T02:17:49.246Z,242.75
2022-12-22T02:21:18.250Z,227.50
2022-12-22T02:24:49.932Z,219.25
2022-12-22T02:28:15.581Z,217.25
2022-12-22T02:31:38.117Z,235.00
2022-12-22T02:35:02.314Z,196.25
2022-12-22T02:38:43.073Z,224.25
2022-12-22T02:42:15.433Z,213.75
2022-12-22T02:49:35.690Z,233.75
2022-12-22T02:53:07.215Z,214.75
2022-12-22T02:56:33.900Z,201.75
2022-12-22T02:59:57.682Z,199.75
2022-12-22T03:03:25.883Z,208.00
2022-12-22T03:06:47.366Z,195.25
2022-12-22T03:10:08.599Z,208.50
2022-12-22T03:14:27.773Z,192.25
2022-12-22T03:17:52.387Z,188.25
2022-12-22T03:21:17.002Z,184.25
2022-12-22T03:24:44.525Z,189.75
2022-12-22T03:27:55.029Z,183.00
2022-12-22T03:31:03.330Z,159.75
2022-12-22T03:34:11.348Z,109.25
2022-12-22T03:37:17.274Z,185.25
2022-12-22T03:40:26.676Z,184.50
2022-12-22T03:43:51.387Z,161.00
2022-12-22T03:47:02.357Z,158.25
2022-12-22T03:50:17.788Z,152.50
2022-12-22T03:53:33.855Z,132.50
2022-12-22T03:56:46.635Z,175.00
2022-12-22T03:59:56.538Z,145.75
2022-12-22T04:03:03.738Z,176.75
2022-12-22T04:06:12.946Z,167.50
2022-12-22T04:09:23.946Z,145.75
2022-12-22T04:13:06.030Z,163.50
2022-12-22T04:16:17.539Z,161.50
2022-12-22T04:19:27.373Z,151.00
2022-12-22T04:22:37.526Z,158.00
2022-12-22T04:25:50.566Z,158.00
2022-12-22T04:28:56.709Z,161.75
2022-12-22T04:32:11.527Z,148.50
2022-12-22T04:35:20.580Z,151.00
2022-12-22T04:38:27.337Z,153.00
2022-12-22T04:41:33.492Z,140.25
2022-12-22T04:44:39.972Z,145.50
2022-12-22T04:47:45.554Z,129.00
2022-12-22T04:50:58.488Z,134.75
2022-12-22T04:54:06.697Z,135.50
2022-12-22T05:02:37.212Z,125.50
2022-12-22T05:05:49.465Z,7.50
2022-12-22T05:09:03.165Z,127.75
2022-12-22T05:12:30.534Z,119.00
2022-12-22T05:15:38.948Z,111.33
2022-12-22T05:18:50.183Z,112.33
2022-12-22T05:21:57.279Z,121.00
2022-12-22T05:25:03.696Z,102.33
2022-12-22T05:28:11.301Z,104.33
2022-12-22T05:31:19.409Z,105.00
2022-12-22T05:34:31.801Z,99.67
2022-12-22T05:37:42.763Z,98.67
2022-12-22T05:40:58.358Z,84.33
2022-12-22T05:44:13.982Z,90.00
2022-12-22T05:47:33.060Z,99.67
2022-12-22T05:50:50.037Z,101.00
2022-12-22T05:54:06.551Z,85.33
2022-12-22T05:57:15.725Z,97.00
2022-12-22T06:00:23.703Z,142.00
2022-12-22T06:03:35.599Z,194.00
2022-12-22T06:06:45.209Z,175.25
2022-12-22T06:09:54.331Z,248.50
2022-12-22T06:13:08.059Z,159.75
2022-12-22T06:16:24.101Z,115.25
2022-12-22T06:19:42.560Z,136.50
2022-12-22T06:22:53.109Z,217.25
2022-12-22T06:26:03.843Z,154.75
2022-12-22T06:29:12.747Z,126.25
2022-12-22T06:32:19.260Z,127.75
2022-12-22T06:36:16.513Z,133.25
2022-12-22T06:43:28.026Z,144.25
2022-12-22T06:47:09.861Z,90.33
2022-12-22T06:50:14.289Z,126.67
2022-12-22T06:53:22.936Z,92.67
2022-12-22T06:56:28.730Z,85.00
2022-12-22T06:59:33.207Z,86.00
2022-12-22T07:02:40.403Z,112.00
2022-12-22T07:05:53.825Z,182.50
2022-12-22T07:08:58.421Z,210.50
2022-12-22T07:12:37.253Z,139.25
2022-12-22T07:15:44.252Z,160.25
2022-12-22T07:18:49.710Z,146.00
2022-12-22T07:21:53.881Z,139.75
2022-12-22T07:24:59.187Z,226.00
2022-12-22T07:28:06.939Z,246.50
2022-12-22T07:31:20.983Z,286.75
2022-12-22T07:34:33.904Z,260.00
2022-12-22T07:37:41.441Z,304.00
2022-12-22T07:40:51.858Z,264.25
2022-12-22T07:44:01.500Z,279.75
2022-12-22T07:47:35.563Z,285.75
2022-12-22T07:50:40.019Z,286.00
2022-12-22T07:53:43.862Z,328.25
2022-12-22T07:56:49.931Z,272.00
2022-12-22T07:59:55.791Z,284.00
2022-12-22T08:03:01.913Z,250.75
2022-12-22T08:06:06.517Z,227.50
2022-12-22T08:09:15.218Z,227.25
2022-12-22T08:12:19.449Z,225.50
2022-12-22T08:15:28.058Z,235.00
2022-12-22T08:18:35.643Z,226.50
2022-12-22T08:21:44.204Z,237.00
2022-12-22T08:24:55.060Z,229.00
2022-12-22T08:28:00.158Z,230.50
2022-12-22T08:31:06.005Z,223.25
2022-12-22T08:34:14.495Z,239.25
2022-12-22T08:37:20.734Z,232.50
2022-12-22T08:40:28.778Z,239.50
2022-12-22T08:43:36.632Z,207.75
2022-12-22T08:47:16.484Z,172.75
2022-12-22T08:50:22.825Z,178.50
2022-12-22T08:54:03.465Z,202.75
2022-12-22T08:56:53.369Z,165.25
2022-12-22T08:59:57.775Z,171.75
2022-12-22T09:03:02.742Z,188.25
2022-12-22T09:06:07.612Z,167.50
2022-12-22T09:09:14.332Z,170.00
2022-12-22T09:12:22.669Z,187.75
2022-12-22T09:15:28.459Z,202.00
2022-12-22T09:18:33.709Z,190.00
2022-12-22T09:21:38.158Z,191.00
2022-12-22T09:24:42.213Z,213.00
2022-12-22T09:27:46.008Z,219.75
2022-12-22T09:30:53.785Z,207.00
2022-12-22T09:33:59.195Z,185.00
2022-12-22T09:37:06.512Z,204.25
2022-12-22T09:40:11.733Z,213.25
2022-12-22T09:43:18.722Z,161.25
2022-12-22T09:46:26.094Z,147.00
2022-12-22T09:49:32.691Z,174.00
2022-12-22T09:52:47.608Z,165.25
2022-12-22T09:55:53.661Z,154.75
2022-12-22T09:58:58.379Z,139.00
2022-12-22T10:02:13.112Z,182.75
2022-12-22T10:05:29.636Z,110.33
2022-12-22T10:08:36.629Z,126.33
2022-12-22T10:11:40.316Z,107.67
2022-12-22T10:14:48.360Z,76.67
2022-12-22T10:17:53.444Z,115.00
2022-12-22T10:21:16.535Z,113.33
2022-12-22T10:24:36.536Z,95.00
2022-12-22T10:27:46.746Z,69.00
2022-12-22T10:31:18.812Z,90.33
2022-12-22T10:34:23.004Z,102.67
2022-12-22T10:37:35.028Z,88.33
2022-12-22T10:40:45.117Z,85.33
2022-12-22T10:43:51.672Z,88.33
2022-12-22T10:46:58.394Z,94.00
2022-12-22T10:53:10.736Z,91.33
2022-12-22T10:56:30.451Z,96.00
2022-12-22T10:59:35.642Z,94.00
2022-12-22T11:02:40.795Z,83.33
2022-12-22T11:05:46.165Z,104.33
2022-12-22T11:08:52.140Z,86.00
2022-12-22T11:12:03.653Z,130.33
2022-12-22T11:15:24.225Z,99.00
2022-12-22T11:18:48.324Z,74.50
2022-12-22T11:22:00.515Z,67.75
2022-12-22T11:25:23.630Z,66.25
2022-12-22T11:28:41.428Z,64.75
2022-12-22T11:32:00.061Z,58.50
2022-12-22T11:35:14.489Z,106.00
2022-12-22T11:38:29.629Z,71.75
2022-12-22T11:41:55.974Z,61.00
2022-12-22T11:45:16.406Z,66.50
2022-12-22T11:48:39.297Z,65.75
2022-12-22T11:52:02.810Z,88.67
2022-12-22T11:55:26.415Z,82.25
2022-12-22T11:58:50.464Z,63.00
2022-12-22T12:02:26.623Z,58.00
2022-12-22T12:05:42.012Z,59.00
2022-12-22T12:09:00.585Z,61.25
2022-12-22T12:12:14.410Z,61.00
2022-12-22T12:15:33.464Z,63.50
2022-12-22T12:19:28.387Z,62.50
2022-12-22T12:23:00.347Z,61.25
2022-12-22T12:26:12.664Z,59.25
2022-12-22T12:29:21.389Z,59.75
2022-12-22T12:32:32.932Z,59.75
2022-12-22T12:35:49.145Z,57.50
2022-12-22T12:39:08.754Z,60.25
2022-12-22T12:42:29.502Z,63.25
2022-12-22T12:45:35.562Z,63.00
2022-12-22T12:48:44.339Z,62.25
2022-12-22T12:51:51.036Z,57.00
2022-12-22T12:55:33.171Z,52.00
2022-12-22T12:58:59.636Z,56.00
2022-12-22T13:02:03.930Z,54.50
2022-12-22T13:05:33.442Z,54.25
2022-12-22T13:09:40.278Z,64.75
2022-12-22T13:12:42.251Z,48.25
2022-12-22T13:15:46.297Z,53.75
2022-12-22T13:18:52.032Z,64.50
2022-12-22T13:21:59.722Z,118.00
2022-12-22T13:25:05.228Z,91.67
2022-12-22T13:28:16.564Z,93.67
2022-12-22T13:31:25.654Z,72.25
2022-12-22T13:35:29.059Z,59.50
2022-12-22T13:38:31.649Z,61.75
2022-12-22T13:41:36.295Z,66.75
2022-12-22T13:44:41.558Z,79.00
2022-12-22T13:47:49.440Z,72.75
2022-12-22T13:50:55.497Z,62.25
2022-12-22T13:54:11.026Z,106.00
2022-12-22T13:57:21.822Z,104.67
2022-12-22T14:00:27.317Z,149.75
2022-12-22T14:03:58.974Z,138.67
2022-12-22T14:06:56.542Z,138.00
2022-12-22T14:10:02.936Z,130.67
2022-12-22T14:13:10.074Z,133.33
2022-12-22T14:16:17.186Z,132.33
2022-12-22T14:19:23.759Z,147.00
2022-12-22T14:22:34.071Z,103.00
2022-12-22T14:25:42.650Z,103.33
2022-12-22T14:28:55.447Z,93.67
2022-12-22T14:32:02.065Z,71.75
2022-12-22T14:35:18.097Z,70.00
2022-12-22T14:38:24.833Z,63.25
2022-12-22T14:41:47.057Z,62.25
2022-12-22T14:44:51.764Z,64.00
2022-12-22T14:47:58.495Z,64.00
2022-12-22T14:51:05.849Z,66.00
2022-12-22T14:54:22.956Z,69.00
2022-12-22T14:57:36.755Z,72.75
2022-12-22T15:00:46.442Z,83.33
2022-12-22T15:04:18.180Z,66.00
2022-12-22T15:08:04.048Z,83.33
2022-12-22T15:10:57.264Z,93.67
2022-12-22T15:14:25.006Z,114.00
2022-12-22T15:17:30.587Z,116.00
2022-12-22T15:20:39.505Z,119.00
2022-12-22T15:23:48.207Z,122.00
2022-12-22T15:26:54.421Z,132.00
2022-12-22T15:30:00.713Z,109.33
2022-12-22T15:33:35.354Z,116.33
2022-12-22T15:36:40.938Z,147.00
2022-12-22T15:39:45.790Z,130.67
2022-12-22T15:43:57.134Z,130.67
2022-12-22T15:47:06.819Z,135.00
2022-12-22T15:50:19.250Z,152.50
2022-12-22T15:53:27.183Z,171.25
2022-12-22T15:56:42.759Z,162.25
2022-12-22T15:59:58.773Z,146.50
2022-12-22T16:03:09.182Z,157.50
2022-12-22T16:06:42.277Z,163.25
2022-12-22T16:09:49.488Z,219.00
2022-12-22T16:13:00.658Z,188.00
2022-12-22T16:16:08.686Z,175.75
2022-12-22T16:19:21.307Z,195.50
2022-12-22T16:22:39.809Z,205.00
2022-12-22T16:26:10.500Z,216.75
2022-12-22T16:29:18.059Z,216.25
2022-12-22T16:33:04.791Z,235.00
2022-12-22T16:36:11.886Z,216.25
2022-12-22T16:39:17.270Z,219.25
2022-12-22T16:45:45.645Z,268.50
2022-12-22T16:48:53.218Z,260.50
2022-12-22T16:51:58.404Z,253.25
2022-12-22T16:55:03.422Z,249.00
2022-12-22T16:58:46.735Z,223.75
2022-12-22T17:01:56.415Z,186.00
2022-12-22T17:05:07.857Z,160.50
2022-12-22T17:08:29.457Z,194.00
2022-12-22T17:11:37.845Z,190.50
2022-12-22T17:18:32.963Z,167.75
2022-12-22T17:21:48.436Z,176.50
2022-12-22T17:24:57.977Z,95.00
2022-12-22T17:28:04.503Z,163.25
2022-12-22T17:31:09.482Z,262.75
2022-12-22T17:34:16.776Z,212.25
2022-12-22T17:37:23.621Z,230.75
2022-12-22T17:40:30.952Z,270.00
2022-12-22T17:43:35.767Z,283.75
2022-12-22T17:46:40.023Z,281.50
2022-12-22T17:49:44.964Z,283.00
2022-12-22T17:52:50.896Z,316.75
2022-12-22T17:56:12.746Z,215.00
2022-12-22T17:59:16.943Z,211.75
2022-12-22T18:02:22.342Z,238.00
2022-12-22T18:05:30.064Z,273.00
2022-12-22T18:08:35.207Z,258.25
2022-12-22T18:11:46.153Z,196.25
2022-12-22T18:14:50.722Z,192.25
2022-12-22T18:17:55.305Z,255.75
2022-12-22T18:21:06.951Z,203.25
2022-12-22T18:24:17.340Z,219.75
2022-12-22T18:27:24.342Z,238.50
2022-12-22T18:30:30.821Z,203.75
2022-12-22T18:33:35.393Z,192.75
2022-12-22T18:36:44.273Z,174.50
2022-12-22T18:39:48.265Z,202.25
2022-12-22T18:42:57.254Z,204.50
2022-12-22T18:46:00.947Z,159.00
2022-12-22T18:49:06.311Z,187.75
2022-12-22T18:52:18.374Z,228.50
2022-12-22T18:55:24.386Z,387.50
2022-12-22T18:58:29.571Z,256.50
2022-12-22T19:01:38.896Z,248.75
2022-12-22T19:04:43.744Z,229.00
2022-12-22T19:07:50.922Z,211.50
2022-12-22T19:10:56.600Z,223.75
2022-12-22T19:14:02.565Z,246.75
2022-12-22T19:17:11.729Z,214.50
2022-12-22T19:20:17.927Z,247.00
2022-12-22T19:24:01.352Z,273.50
2022-12-22T19:27:05.969Z,227.75
2022-12-22T19:30:18.797Z,223.00
2022-12-22T19:33:29.519Z,218.75
2022-12-22T19:36:34.561Z,211.00
2022-12-22T19:39:39.142Z,169.75
2022-12-22T19:42:45.150Z,239.50
2022-12-22T19:45:55.582Z,233.00
2022-12-22T19:49:00.887Z,246.50
2022-12-22T19:52:07.889Z,234.25
2022-12-22T19:55:13.128Z,230.50
2022-12-22T19:58:21.367Z,242.25
2022-12-22T20:01:26.729Z,250.50
2022-12-22T20:04:30.939Z,254.50
2022-12-22T20:07:37.170Z,197.25
2022-12-22T20:10:41.969Z,215.75
2022-12-22T20:13:47.721Z,186.25
2022-12-22T20:16:56.299Z,168.00
2022-12-22T20:20:05.199Z,173.50
2022-12-22T20:23:15.376Z,171.00
2022-12-22T20:26:23.244Z,171.50
2022-12-22T20:29:27.783Z,173.00
2022-12-22T20:32:35.988Z,188.00
2022-12-22T20:35:42.488Z,232.75
2022-12-22T20:38:49.772Z,198.50
2022-12-22T20:41:58.809Z,196.75
2022-12-22T20:45:04.703Z,202.50
2022-12-22T20:48:21.097Z,178.25
2022-12-22T20:51:27.677Z,187.00
2022-12-22T20:54:34.647Z,192.00
2022-12-22T20:57:40.316Z,181.75
2022-12-22T21:00:45.884Z,127.33
2022-12-22T21:03:52.809Z,145.75
2022-12-22T21:07:21.204Z,128.00
2022-12-22T21:10:36.059Z,192.75
2022-12-22T21:13:41.379Z,159.75
2022-12-22T21:16:49.009Z,151.25
2022-12-22T21:19:55.612Z,182.25
2022-12-22T21:23:02.044Z,182.25
2022-12-22T21:26:07.737Z,173.50
2022-12-22T21:29:30.060Z,172.25
2022-12-22T21:32:37.312Z,173.25
2022-12-22T21:35:55.625Z,150.50
2022-12-22T21:39:06.514Z,143.50
2022-12-22T21:42:16.046Z,131.25
2022-12-22T21:45:23.565Z,142.50
2022-12-22T21:48:27.455Z,132.33
2022-12-22T21:56:21.751Z,129.67
2022-12-22T22:00:29.615Z,123.00
2022-12-22T22:04:28.316Z,161.75
2022-12-22T22:08:44.467Z,160.50
2022-12-22T22:12:27.958Z,146.25
2022-12-22T22:15:52.983Z,127.33
2022-12-22T22:19:13.257Z,126.00
2022-12-22T22:22:32.633Z,121.67
2022-12-22T22:26:00.654Z,129.00
2022-12-22T22:30:17.200Z,130.33
2022-12-22T22:38:16.089Z,56.67
2022-12-22T22:42:27.544Z,123.67
2022-12-22T22:45:55.914Z,135.00
2022-12-22T22:49:24.240Z,56.75
2022-12-22T22:52:45.069Z,139.67
2022-12-22T22:55:59.954Z,148.50
2022-12-22T22:59:05.447Z,142.50
2022-12-22T23:07:02.083Z,134.33
2022-12-22T23:10:41.102Z,141.75
2022-12-22T23:13:51.586Z,124.33
2022-12-22T23:17:08.499Z,126.33
2022-12-22T23:20:32.486Z,124.67
2022-12-22T23:23:59.749Z,106.00
2022-12-22T23:27:44.426Z,133.25
2022-12-22T23:34:33.488Z,123.67
2022-12-22T23:38:03.948Z,101.00
2022-12-22T23:41:51.140Z,109.33
2022-12-22T23:45:02.433Z,142.25
2022-12-22T23:48:20.868Z,136.67
2022-12-22T23:52:49.012Z,133.33
2022-12-22T23:55:58.732Z,137.00
